Time;durP1;ratioP1;P1;durP2;ratioP2;P2;SDS_P1;SDS_P2;PMS_P1;PMS_P2;Temp;Humidity;BMP_temperature;BMP_pressure;BME280_temperature;BME280_humidity;BME280_pressure;Samples;Min_cycle;Max_cycle;Signal;HPM_P1;HPM_P2
2023/12/18 00:00:52;;;;;;;32.17;10.70;;;;;;;1.30;84.47;98650.78;5064874;28;20193;-73
2023/12/18 00:03:19;;;;;;;31.80;11.27;;;;;;;1.27;84.30;98649.03;5066326;28;20193;-72
2023/12/18 00:05:46;;;;;;;33.50;10.77;;;;;;;1.24;84.57;98648.97;5064923;28;20239;-72
2023/12/18 00:08:13;;;;;;;30.50;10.33;;;;;;;1.05;85.18;98644.38;5066438;28;20263;-73
2023/12/18 00:10:41;;;;;;;28.60;10.10;;;;;;;1.11;85.29;98634.31;5064726;28;20300;-72
2023/12/18 00:13:08;;;;;;;31.43;10.77;;;;;;;1.21;84.39;98638.75;5065899;28;20716;-71
2023/12/18 00:15:35;;;;;;;27.50;9.90;;;;;;;1.34;83.73;98643.19;5065906;28;20711;-73
2023/12/18 00:18:02;;;;;;;33.40;11.67;;;;;;;1.44;83.03;98642.50;5065186;28;20756;-72
2023/12/18 00:20:29;;;;;;;30.33;10.53;;;;;;;1.30;83.53;98626.09;5066293;28;20207;-72
2023/12/18 00:22:57;;;;;;;33.83;11.90;;;;;;;1.46;82.13;98638.25;5064727;28;20516;-73
2023/12/18 00:25:25;;;;;;;32.90;11.67;;;;;;;1.33;83.18;98631.28;5066626;28;20288;-73
2023/12/18 00:27:52;;;;;;;31.37;11.03;;;;;;;1.43;82.07;98622.94;5063421;28;20247;-72
2023/12/18 00:30:19;;;;;;;36.50;12.33;;;;;;;1.61;81.78;98641.06;5066193;28;20567;-71
2023/12/18 00:32:46;;;;;;;28.00;10.13;;;;;;;1.06;82.66;98567.06;5065680;28;20243;-72
2023/12/18 00:35:13;;;;;;;35.20;12.97;;;;;;;1.61;82.17;98635.97;5065295;28;20229;-72
2023/12/18 00:37:41;;;;;;;38.43;12.07;;;;;;;1.66;81.65;98625.81;5066213;28;20181;-71
2023/12/18 00:40:08;;;;;;;34.53;12.20;;;;;;;1.85;80.89;98644.81;5064493;28;20212;-72
2023/12/18 00:42:36;;;;;;;33.63;11.27;;;;;;;1.85;81.00;98634.59;5066094;28;20280;-71
2023/12/18 00:45:03;;;;;;;28.50;11.17;;;;;;;1.86;80.65;98632.06;5065066;28;20196;-72
2023/12/18 00:47:30;;;;;;;28.60;10.77;;;;;;;1.94;80.13;98635.56;5066888;28;20283;-72
2023/12/18 00:49:58;;;;;;;23.47;10.90;;;;;;;1.94;80.91;98629.63;5066719;28;20219;-70
2023/12/18 00:52:25;;;;;;;34.80;11.90;;;;;;;2.00;80.56;98629.72;5068013;28;20229;-71
2023/12/18 00:54:52;;;;;;;32.40;11.37;;;;;;;2.15;80.32;98628.19;5068790;28;20594;-71
2023/12/18 00:57:19;;;;;;;37.10;12.03;;;;;;;1.88;78.93;98617.63;5067648;28;20196;-72
2023/12/18 00:59:46;;;;;;;35.63;11.90;;;;;;;1.86;79.77;98618.41;5068613;28;20204;-72
2023/12/18 01:02:13;;;;;;;27.90;11.20;;;;;;;1.94;79.80;98622.81;5070842;28;20189;-72
2023/12/18 01:04:40;;;;;;;40.83;12.43;;;;;;;1.75;80.42;98620.84;5071063;28;20232;-73
2023/12/18 01:07:07;;;;;;;29.37;11.37;;;;;;;1.36;80.99;98603.25;5069021;28;20199;-72
2023/12/18 01:09:34;;;;;;;35.13;12.70;;;;;;;1.33;82.11;98610.88;5068702;28;20300;-73
2023/12/18 01:12:02;;;;;;;33.57;13.93;;;;;;;1.55;81.27;98606.91;5069418;28;20208;-74
2023/12/18 01:14:29;;;;;;;33.70;12.80;;;;;;;1.54;81.63;98590.78;5068156;28;20745;-73
2023/12/18 01:16:56;;;;;;;31.87;11.53;;;;;;;1.67;80.51;98603.72;5069452;28;20228;-72
2023/12/18 01:19:23;;;;;;;31.73;10.97;;;;;;;1.61;80.76;98607.88;5068022;28;20199;-71
2023/12/18 01:21:51;;;;;;;30.13;10.93;;;;;;;1.55;79.97;98589.91;5069203;28;20215;-72
2023/12/18 01:24:18;;;;;;;24.77;10.60;;;;;;;1.53;79.94;98596.69;5068049;28;20197;-73
2023/12/18 01:26:45;;;;;;;29.90;11.23;;;;;;;1.34;81.59;98593.88;5068459;28;20281;-72
2023/12/18 01:29:12;;;;;;;28.60;10.37;;;;;;;1.36;81.54;98599.84;5069241;28;20640;-72
2023/12/18 01:31:39;;;;;;;35.20;12.17;;;;;;;1.31;81.28;98597.22;5066207;28;20203;-72
2023/12/18 01:34:06;;;;;;;32.43;11.87;;;;;;;1.29;81.56;98591.25;5069032;28;20219;-71
2023/12/18 01:36:33;;;;;;;35.23;11.60;;;;;;;1.52;81.46;98591.59;5066858;28;20237;-72
2023/12/18 01:39:01;;;;;;;35.93;12.00;;;;;;;1.51;80.75;98572.84;5068607;28;20204;-71
2023/12/18 01:41:28;;;;;;;28.40;10.83;;;;;;;1.53;80.34;98588.19;5049214;28;20201;-72
2023/12/18 01:43:55;;;;;;;32.77;11.77;;;;;;;1.54;80.55;98595.88;5067025;28;20185;-71
2023/12/18 01:46:23;;;;;;;29.07;11.20;;;;;;;1.49;80.67;98581.31;5068467;28;20204;-72
2023/12/18 01:48:51;;;;;;;35.47;12.03;;;;;;;1.52;80.52;98587.34;5067330;28;20193;-72
2023/12/18 01:51:19;;;;;;;35.30;12.60;;;;;;;1.53;80.92;98591.59;5068285;28;20207;-71
2023/12/18 01:53:49;;;;;;;34.27;12.03;;;;;;;1.69;80.60;98586.72;5067248;28;20224;-71
2023/12/18 01:56:20;;;;;;;35.00;13.13;;;;;;;1.45;80.14;98560.00;5068642;28;20228;-71
2023/12/18 01:58:48;;;;;;;26.80;10.67;;;;;;;1.54;79.81;98580.56;5067494;28;20553;-72
2023/12/18 02:01:15;;;;;;;33.77;12.20;;;;;;;1.56;79.84;98578.88;5067913;28;20193;-72
2023/12/18 02:03:44;;;;;;;25.00;10.40;;;;;;;1.55;80.29;98566.94;5066934;28;20209;-72
2023/12/18 02:06:14;;;;;;;33.53;12.47;;;;;;;1.55;80.01;98572.06;5066841;28;20262;-72
2023/12/18 02:08:41;;;;;;;33.03;12.53;;;;;;;1.51;79.63;98562.63;5067046;28;20197;-72
2023/12/18 02:11:09;;;;;;;34.67;12.63;;;;;;;1.63;79.50;98585.78;5066722;28;20197;-72
2023/12/18 02:13:38;;;;;;;33.17;12.43;;;;;;;1.58;79.82;98592.53;5068270;28;20691;-72
2023/12/18 02:16:06;;;;;;;30.47;11.10;;;;;;;1.41;79.94;98586.31;5066985;28;20725;-71
2023/12/18 02:18:33;;;;;;;33.53;11.30;;;;;;;1.23;79.96;98588.59;5067450;28;20219;-72
2023/12/18 02:21:01;;;;;;;24.70;10.10;;;;;;;1.04;80.35;98578.06;5067874;28;20215;-72
2023/12/18 02:23:28;;;;;;;34.60;12.10;;;;;;;0.94;79.59;98573.66;5066564;28;20548;-73
2023/12/18 02:25:55;;;;;;;35.40;12.30;;;;;;;0.93;80.16;98562.59;5067775;28;20613;-73
2023/12/18 02:28:22;;;;;;;30.47;11.40;;;;;;;0.65;80.40;98555.31;5066179;28;20236;-72
2023/12/18 02:30:50;;;;;;;27.43;10.43;;;;;;;0.91;81.93;98566.81;5067820;28;20201;-72
2023/12/18 02:33:17;;;;;;;30.47;11.00;;;;;;;0.90;80.80;98564.22;5066495;28;20644;-72
2023/12/18 02:35:45;;;;;;;34.30;12.47;;;;;;;0.97;80.63;98559.25;5067305;28;20308;-71
2023/12/18 02:38:12;;;;;;;30.07;11.63;;;;;;;1.12;81.28;98566.28;5067625;28;20201;-72
2023/12/18 02:40:40;;;;;;;35.13;12.73;;;;;;;0.98;79.94;98550.78;5066262;28;20270;-71
2023/12/18 02:43:07;;;;;;;34.40;12.53;;;;;;;0.95;80.11;98572.84;5067602;28;20188;-72
2023/12/18 02:45:34;;;;;;;32.67;12.73;;;;;;;1.04;80.78;98576.38;5066038;28;20189;-72
2023/12/18 02:48:01;;;;;;;32.10;11.10;;;;;;;0.49;81.28;98578.81;5067395;28;20205;-72
2023/12/18 02:50:28;;;;;;;34.10;11.60;;;;;;;0.59;82.68;98567.97;5066067;28;20292;-72
2023/12/18 02:52:56;;;;;;;36.00;12.00;;;;;;;0.47;82.66;98565.19;5067033;28;20221;-72
2023/12/18 02:55:23;;;;;;;25.07;10.10;;;;;;;0.41;83.78;98555.72;5067012;28;20220;-73
2023/12/18 02:57:50;;;;;;;32.57;11.30;;;;;;;0.45;83.46;98561.75;5066287;28;20196;-71
2023/12/18 03:00:17;;;;;;;30.20;11.50;;;;;;;0.13;83.75;98527.19;5067284;28;20193;-73
2023/12/18 03:02:44;;;;;;;32.27;11.40;;;;;;;0.53;84.72;98555.09;5065575;28;20197;-71
2023/12/18 03:05:11;;;;;;;32.27;12.03;;;;;;;0.61;84.02;98558.66;5067242;28;20201;-72
2023/12/18 03:07:38;;;;;;;33.43;11.03;;;;;;;0.73;84.21;98561.41;5065832;28;20271;-72
2023/12/18 03:10:06;;;;;;;33.20;11.43;;;;;;;0.77;83.82;98556.38;5067410;28;20193;-72
2023/12/18 03:12:33;;;;;;;27.73;10.40;;;;;;;0.86;83.24;98535.28;5066438;28;20287;-71
2023/12/18 03:15:01;;;;;;;29.80;11.47;;;;;;;1.08;82.37;98557.72;5064467;28;20257;-72
2023/12/18 03:17:30;;;;;;;24.83;9.80;;;;;;;0.96;81.96;98554.13;5066883;28;20587;-72
2023/12/18 03:19:57;;;;;;;31.37;11.43;;;;;;;1.08;81.62;98549.22;5065486;28;20244;-72
2023/12/18 03:22:24;;;;;;;27.30;10.37;;;;;;;1.19;81.05;98545.16;5066571;28;20194;-73
2023/12/18 03:24:51;;;;;;;27.87;10.23;;;;;;;0.96;79.79;98481.03;5065437;28;20197;-72
2023/12/18 03:27:18;;;;;;;30.20;11.33;;;;;;;1.36;80.80;98553.91;5066794;28;20280;-71
2023/12/18 03:29:45;;;;;;;27.03;10.40;;;;;;;1.14;80.00;98547.63;5066102;28;20196;-72
2023/12/18 03:32:13;;;;;;;33.23;12.27;;;;;;;1.20;80.82;98557.91;5066055;28;20217;-72
2023/12/18 03:34:40;;;;;;;32.43;11.73;;;;;;;1.13;80.42;98545.06;5066563;28;20284;-71
2023/12/18 03:37:10;;;;;;;33.10;12.47;;;;;;;0.96;79.90;98551.59;5065189;28;20278;-72
2023/12/18 03:39:37;;;;;;;29.93;11.17;;;;;;;0.94;80.55;98569.41;5066808;28;20185;-72
2023/12/18 03:42:04;;;;;;;38.23;12.23;;;;;;;0.85;80.88;98564.16;5064975;28;20186;-71
2023/12/18 03:44:31;;;;;;;31.73;11.47;;;;;;;0.94;81.05;98560.91;5066459;28;20193;-72
2023/12/18 03:46:58;;;;;;;26.37;10.47;;;;;;;0.81;81.41;98563.25;5065876;28;20221;-71
2023/12/18 03:49:25;;;;;;;29.80;11.20;;;;;;;0.73;80.87;98548.66;5066167;28;20282;-72
2023/12/18 03:51:53;;;;;;;31.60;11.60;;;;;;;0.79;81.38;98559.81;5066169;28;20738;-73
2023/12/18 03:54:20;;;;;;;30.83;11.57;;;;;;;0.57;80.58;98537.34;5064960;28;20228;-71
2023/12/18 03:56:47;;;;;;;39.40;12.07;;;;;;;0.41;79.94;98543.00;5066782;28;20244;-72
2023/12/18 03:59:14;;;;;;;33.07;11.27;;;;;;;0.39;81.22;98566.75;5064862;28;20186;-71
2023/12/18 04:01:41;;;;;;;31.97;10.40;;;;;;;0.16;81.45;98561.22;5066412;28;20228;-73
2023/12/18 04:04:10;;;;;;;26.10;8.60;;;;;;;0.19;81.98;98555.31;5065660;28;20203;-71
2023/12/18 04:06:37;;;;;;;32.77;9.63;;;;;;;0.17;81.41;98557.81;5065809;28;20193;-71
2023/12/18 04:09:04;;;;;;;23.57;7.67;;;;;;;0.33;81.94;98559.81;5066539;28;20193;-72
2023/12/18 04:11:31;;;;;;;27.63;8.43;;;;;;;0.27;81.24;98551.25;5064845;28;20203;-72
2023/12/18 04:13:58;;;;;;;26.33;8.17;;;;;;;0.32;80.88;98565.78;5066380;28;20189;-73
2023/12/18 04:16:25;;;;;;;27.20;8.43;;;;;;;0.38;81.45;98559.91;5064895;28;20323;-73
2023/12/18 04:18:52;;;;;;;22.23;7.67;;;;;;;0.61;81.56;98556.09;5066505;28;20192;-72
2023/12/18 04:21:19;;;;;;;28.27;10.33;;;;;;;0.63;81.56;98559.53;5063718;28;20203;-71
2023/12/18 04:23:47;;;;;;;44.07;15.47;;;;;;;0.57;80.73;98532.25;5065803;28;20327;-71
2023/12/18 04:26:14;;;;;;;96.33;22.27;;;;;;;0.85;79.33;98553.94;5066141;28;20632;-72
2023/12/18 04:28:41;;;;;;;47.27;17.40;;;;;;;0.92;79.51;98550.69;5065091;28;20294;-73
2023/12/18 04:31:08;;;;;;;41.60;16.90;;;;;;;0.89;78.84;98544.69;5066253;28;20706;-72
2023/12/18 04:33:38;;;;;;;44.17;16.87;;;;;;;0.77;79.81;98542.78;5064586;28;20197;-72
2023/12/18 04:36:06;;;;;;;37.83;14.83;;;;;;;0.74;80.30;98540.19;5069531;28;20291;-71
2023/12/18 04:38:34;;;;;;;38.97;14.70;;;;;;;0.87;80.42;98557.38;5068968;28;20585;-71
2023/12/18 04:41:01;;;;;;;46.23;16.40;;;;;;;0.77;78.96;98545.31;5067930;28;20196;-71
2023/12/18 04:43:29;;;;;;;37.73;14.50;;;;;;;0.73;79.13;98541.00;5069653;28;20284;-70
2023/12/18 04:45:59;;;;;;;31.27;11.93;;;;;;;0.61;79.83;98549.31;5068269;28;20615;-70
2023/12/18 04:48:26;;;;;;;30.67;10.63;;;;;;;0.54;80.52;98531.31;5069813;28;20221;-71
2023/12/18 04:50:53;;;;;;;39.80;12.50;;;;;;;0.44;79.40;98519.25;5068378;28;20284;-71
2023/12/18 04:53:21;;;;;;;34.57;11.27;;;;;;;0.52;79.44;98545.72;5068431;28;20221;-73
2023/12/18 04:55:48;;;;;;;30.33;10.10;;;;;;;0.31;80.21;98535.19;5068442;28;20186;-71
2023/12/18 04:58:15;;;;;;;36.83;10.27;;;;;;;0.37;81.14;98553.13;5069435;28;20228;-71
2023/12/18 05:00:42;;;;;;;27.73;9.37;;;;;;;0.16;82.24;98529.78;5069422;28;20201;-71
2023/12/18 05:03:09;;;;;;;30.47;10.33;;;;;;;0.13;82.97;98543.31;5068275;28;20209;-72
2023/12/18 05:05:36;;;;;;;37.33;10.57;;;;;;;0.14;82.79;98551.81;5069455;28;20197;-72
2023/12/18 05:08:04;;;;;;;27.57;9.30;;;;;;;-0.16;83.28;98536.81;5067956;28;20208;-71
2023/12/18 05:10:31;;;;;;;49.40;16.17;;;;;;;-0.14;84.38;98552.97;5068982;28;20283;-70
2023/12/18 05:12:59;;;;;;;42.40;13.23;;;;;;;-0.26;83.70;98523.03;5066389;28;20680;-71
2023/12/18 05:15:26;;;;;;;39.40;12.40;;;;;;;-0.31;85.23;98539.06;5069276;28;20193;-71
2023/12/18 05:17:53;;;;;;;28.47;10.90;;;;;;;-0.22;84.38;98536.69;5068708;28;20229;-72
2023/12/18 05:20:20;;;;;;;34.30;11.67;;;;;;;-0.61;84.59;98472.25;5068207;28;20201;-72
2023/12/18 05:22:47;;;;;;;35.03;11.93;;;;;;;-0.21;85.35;98529.09;5067961;28;20285;-74
2023/12/18 05:25:14;;;;;;;32.50;11.33;;;;;;;-0.36;85.13;98516.06;5067701;28;20287;-71
2023/12/18 05:27:41;;;;;;;33.83;11.37;;;;;;;-0.31;84.75;98516.16;5067876;28;20201;-71
2023/12/18 05:30:09;;;;;;;26.77;9.03;;;;;;;-0.27;84.92;98528.09;5066229;28;20293;-73
2023/12/18 05:32:36;;;;;;;25.37;10.27;;;;;;;-0.24;84.73;98554.47;5068858;28;20208;-71
2023/12/18 05:35:03;;;;;;;22.83;9.50;;;;;;;-0.27;85.57;98535.75;5068332;28;20208;-71
2023/12/18 05:37:30;;;;;;;29.00;10.90;;;;;;;-0.31;85.11;98511.06;5067711;28;20224;-72
2023/12/18 05:39:58;;;;;;;27.43;10.83;;;;;;;-0.13;84.56;98521.59;5068856;28;20292;-73
2023/12/18 05:42:25;;;;;;;31.37;12.13;;;;;;;-0.07;84.81;98512.41;5066185;28;20201;-71
2023/12/18 05:44:52;;;;;;;37.30;12.30;;;;;;;0.05;84.18;98514.31;5068787;28;20205;-72
2023/12/18 05:47:19;;;;;;;34.43;12.90;;;;;;;0.15;83.62;98517.88;5066835;28;20295;-72
2023/12/18 05:49:46;;;;;;;32.37;12.13;;;;;;;0.22;82.34;98505.31;5068862;28;20268;-72
2023/12/18 05:52:18;;;;;;;22.27;9.83;;;;;;;0.38;82.63;98514.06;5067575;28;20247;-71
2023/12/18 05:54:45;;;;;;;29.50;12.43;;;;;;;0.43;82.47;98515.88;5068059;28;20680;-73
2023/12/18 05:57:16;;;;;;;28.47;11.43;;;;;;;0.51;81.66;98505.81;5068630;28;20327;-73
2023/12/18 05:59:44;;;;;;;33.83;12.63;;;;;;;0.63;81.72;98528.94;5067375;28;20204;-72
2023/12/18 06:02:11;;;;;;;34.27;12.30;;;;;;;0.56;81.01;98502.50;5068541;28;20203;-72
2023/12/18 06:04:41;;;;;;;29.33;10.77;;;;;;;0.64;81.46;98518.78;5067112;28;20197;-71
2023/12/18 06:07:10;;;;;;;29.17;11.90;;;;;;;0.71;80.86;98499.34;5068264;28;20630;-71
2023/12/18 06:09:37;;;;;;;31.23;11.03;;;;;;;0.95;80.34;98524.38;5068086;28;20224;-72
2023/12/18 06:12:05;;;;;;;30.43;10.77;;;;;;;0.92;79.29;98535.38;5067276;28;20197;-72
2023/12/18 06:14:32;;;;;;;30.83;11.13;;;;;;;0.80;80.29;98518.19;5067957;28;20209;-73
2023/12/18 06:16:59;;;;;;;29.13;10.60;;;;;;;0.70;80.40;98508.66;5065100;28;20220;-72
2023/12/18 06:19:26;;;;;;;40.03;13.57;;;;;;;1.00;80.04;98526.16;5067763;28;20220;-72
2023/12/18 06:21:53;;;;;;;30.40;11.10;;;;;;;0.90;79.19;98501.34;5066453;28;20247;-72
2023/12/18 06:24:21;;;;;;;29.33;10.57;;;;;;;1.06;79.18;98533.91;5068273;28;20207;-73
2023/12/18 06:26:48;;;;;;;21.87;9.47;;;;;;;1.34;78.78;98532.63;5067413;28;20224;-73
2023/12/18 06:29:15;;;;;;;28.83;10.10;;;;;;;1.37;78.46;98547.97;5067067;28;20200;-72
2023/12/18 06:31:42;;;;;;;34.63;9.83;;;;;;;1.34;77.64;98551.31;5067677;28;20204;-71
2023/12/18 06:34:11;;;;;;;36.80;9.77;;;;;;;1.38;78.44;98547.16;5066106;28;20205;-72
2023/12/18 06:36:38;;;;;;;31.87;10.97;;;;;;;1.46;78.38;98531.06;5067740;28;20236;-73
2023/12/18 06:39:05;;;;;;;25.87;9.70;;;;;;;1.37;77.36;98519.91;5066145;28;20270;-72
2023/12/18 06:41:32;;;;;;;28.77;10.17;;;;;;;1.70;77.18;98534.78;5067273;28;20221;-71
2023/12/18 06:44:03;;;;;;;19.07;7.40;;;;;;;1.67;77.00;98551.78;5067239;28;20215;-71
2023/12/18 06:46:31;;;;;;;29.70;9.93;;;;;;;1.73;76.65;98543.38;5067348;28;20208;-71
2023/12/18 06:48:59;;;;;;;22.13;8.47;;;;;;;1.86;76.93;98542.66;5071662;28;20799;-69
2023/12/18 06:51:27;;;;;;;26.00;8.87;;;;;;;1.93;76.39;98512.97;5078439;28;20242;-71
2023/12/18 06:53:55;;;;;;;28.23;9.77;;;;;;;2.09;75.56;98548.06;5076563;28;20197;-72
2023/12/18 06:56:23;;;;;;;28.53;9.93;;;;;;;2.01;75.60;98553.09;5067966;28;20195;-73
2023/12/18 06:58:50;;;;;;;26.50;10.17;;;;;;;2.03;75.47;98545.44;5066823;28;20216;-73
2023/12/18 07:01:17;;;;;;;26.83;10.87;;;;;;;1.76;75.81;98524.66;5066088;28;20286;-72
2023/12/18 07:03:44;;;;;;;30.90;12.37;;;;;;;1.85;76.50;98551.19;5066829;28;20196;-73
2023/12/18 07:06:11;;;;;;;22.30;9.50;;;;;;;1.95;75.56;98547.03;5066849;28;20209;-73
2023/12/18 07:08:40;;;;;;;36.23;14.23;;;;;;;1.82;76.58;98509.41;5065791;28;20185;-72
2023/12/18 07:11:09;;;;;;;32.20;13.13;;;;;;;2.03;76.63;98545.44;5067380;28;20189;-70
2023/12/18 07:13:36;;;;;;;33.47;13.07;;;;;;;2.00;76.05;98545.41;5065616;28;20227;-70
2023/12/18 07:16:06;;;;;;;27.83;11.63;;;;;;;2.05;76.35;98539.50;5065672;28;20217;-71
2023/12/18 07:18:34;;;;;;;24.23;10.00;;;;;;;2.20;76.32;98539.69;5066485;28;20315;-71
2023/12/18 07:21:01;;;;;;;35.20;11.53;;;;;;;2.36;76.80;98540.69;5066596;28;20223;-73
2023/12/18 07:23:31;;;;;;;25.60;10.93;;;;;;;2.06;77.27;98525.88;5067150;28;20688;-70
2023/12/18 07:25:58;;;;;;;26.50;11.43;;;;;;;2.13;77.39;98527.66;5066476;28;20196;-72
2023/12/18 07:28:25;;;;;;;30.67;12.60;;;;;;;2.30;77.21;98540.63;5067686;28;20189;-73
2023/12/18 07:30:52;;;;;;;29.53;11.27;;;;;;;2.37;77.01;98535.59;5066616;28;20200;-71
2023/12/18 07:33:20;;;;;;;26.40;10.50;;;;;;;2.36;76.58;98528.78;5071715;28;21150;-73
2023/12/18 07:35:48;;;;;;;26.43;10.83;;;;;;;2.51;76.65;98530.63;5081214;28;20268;-71
2023/12/18 07:38:16;;;;;;;38.90;13.67;;;;;;;2.61;76.22;98514.53;5073854;28;20711;-71
2023/12/18 07:40:44;;;;;;;24.90;10.80;;;;;;;2.67;76.09;98537.59;5067176;28;20197;-72
2023/12/18 07:43:15;;;;;;;35.77;13.13;;;;;;;2.68;75.25;98508.59;5065547;28;20784;-72
2023/12/18 07:45:44;;;;;;;38.80;13.13;;;;;;;2.89;75.18;98528.41;5065759;28;20684;-72
2023/12/18 07:48:12;;;;;;;35.73;12.33;;;;;;;3.05;75.17;98527.69;5065142;28;20272;-72
2023/12/18 07:50:39;;;;;;;42.70;14.60;;;;;;;3.17;74.70;98517.53;5066537;28;20193;-73
2023/12/18 07:53:09;;;;;;;27.10;11.80;;;;;;;3.20;74.07;98500.50;5065234;28;20224;-73
2023/12/18 07:55:36;;;;;;;35.90;14.23;;;;;;;3.20;74.47;98490.25;5063926;28;20205;-71
2023/12/18 07:58:03;;;;;;;25.07;11.30;;;;;;;3.03;74.33;98453.47;5065936;28;20252;-72
2023/12/18 08:00:30;;;;;;;32.30;12.57;;;;;;;3.30;74.44;98489.47;5064614;28;20626;-73
2023/12/18 08:03:02;;;;;;;34.23;13.07;;;;;;;3.54;75.07;98514.38;5066328;28;20194;-72
2023/12/18 08:05:29;;;;;;;39.40;14.23;;;;;;;3.76;74.95;98515.31;5064351;28;20213;-72
2023/12/18 08:07:57;;;;;;;38.60;13.87;;;;;;;3.39;75.15;98467.31;5066559;28;20232;-73
2023/12/18 08:10:25;;;;;;;40.77;14.10;;;;;;;3.70;74.60;98517.84;5069016;28;20205;-71
2023/12/18 08:12:53;;;;;;;38.93;14.50;;;;;;;3.82;75.09;98512.78;5074436;28;20280;-71
2023/12/18 08:15:20;;;;;;;43.17;16.37;;;;;;;4.10;74.51;98515.44;5076713;28;20193;-73
2023/12/18 08:17:49;;;;;;;32.67;12.60;;;;;;;3.85;73.21;98453.88;5074452;28;20286;-71
2023/12/18 08:20:17;;;;;;;33.77;12.10;;;;;;;4.19;73.09;98491.53;5085421;28;20280;-71
2023/12/18 08:22:44;;;;;;;32.17;12.17;;;;;;;4.30;73.20;98501.81;5069119;28;20206;-72
2023/12/18 08:25:11;;;;;;;36.90;13.30;;;;;;;4.40;73.54;98504.41;5070319;28;20201;-72
2023/12/18 08:27:40;;;;;;;28.27;10.87;;;;;;;4.66;73.18;98502.75;5069106;28;20202;-78
2023/12/18 08:30:13;;;;;;;34.53;12.47;;;;;;;4.37;72.51;98468.50;5069339;28;20244;-74
2023/12/18 08:32:41;;;;;;;29.83;9.87;;;;;;;4.87;72.29;98502.75;5069519;28;20220;-74
2023/12/18 08:35:10;;;;;;;29.93;11.40;;;;;;;4.82;72.20;98476.22;5067965;28;20630;-73
2023/12/18 08:37:43;;;;;;;38.77;12.00;;;;;;;4.80;71.07;98483.06;5068348;28;20606;-75
2023/12/18 08:40:11;;;;;;;36.87;11.23;;;;;;;4.90;69.95;98496.78;5067848;28;20200;-74
2023/12/18 08:42:38;;;;;;;30.97;10.40;;;;;;;5.16;69.54;98494.16;5070608;28;20651;-72
2023/12/18 08:45:09;;;;;;;19.40;7.93;;;;;;;5.19;68.58;98468.50;5067627;28;20197;-74
2023/12/18 08:47:40;;;;;;;41.97;12.40;;;;;;;5.17;67.97;98465.09;5068955;28;20210;-73
2023/12/18 08:50:09;;;;;;;37.70;11.03;;;;;;;5.29;67.93;98465.06;5076587;28;20229;-75
2023/12/18 08:52:36;;;;;;;33.67;10.67;;;;;;;5.08;67.42;98413.75;5073107;28;20667;-73
2023/12/18 08:55:04;;;;;;;33.63;10.80;;;;;;;5.47;67.30;98467.56;5072568;28;20290;-74
2023/12/18 08:57:32;;;;;;;36.40;11.10;;;;;;;5.58;67.72;98465.84;5070649;28;20257;-73
2023/12/18 08:59:59;;;;;;;35.50;11.17;;;;;;;5.75;68.62;98467.47;5083002;28;20198;-71
2023/12/18 09:02:30;;;;;;;29.57;9.63;;;;;;;5.90;68.48;98461.44;5088775;28;20209;-73
2023/12/18 09:04:57;;;;;;;40.63;12.23;;;;;;;5.95;67.76;98441.72;5072763;28;20190;-73
2023/12/18 09:07:25;;;;;;;28.70;10.37;;;;;;;6.04;66.31;98444.22;5070828;28;20195;-74
2023/12/18 09:09:52;;;;;;;39.20;11.87;;;;;;;5.87;66.96;98410.06;5066496;28;20734;-72
2023/12/18 09:12:20;;;;;;;38.40;11.37;;;;;;;6.03;66.45;98416.81;5051551;28;20252;-76
2023/12/18 09:14:50;;;;;;;39.27;12.63;;;;;;;6.27;65.96;98406.38;5068106;28;20195;-72
2023/12/18 09:17:18;;;;;;;33.43;10.73;;;;;;;6.47;66.03;98432.81;5068846;28;20305;-76
2023/12/18 09:19:46;;;;;;;22.37;8.07;;;;;;;6.43;63.85;98438.84;5068149;28;20210;-74
2023/12/18 09:22:13;;;;;;;21.23;7.40;;;;;;;6.46;64.90;98412.22;5070003;28;20192;-74
2023/12/18 09:24:42;;;;;;;35.00;9.53;;;;;;;6.22;64.37;98346.38;5069342;28;20658;-74
2023/12/18 09:27:10;;;;;;;30.40;9.87;;;;;;;6.82;64.11;98427.38;5066903;28;20211;-77
2023/12/18 09:29:40;;;;;;;33.40;9.30;;;;;;;6.57;62.61;98370.09;5068143;28;20272;-75
2023/12/18 09:32:07;;;;;;;27.40;8.83;;;;;;;6.98;62.47;98403.19;5067663;28;20614;-75
2023/12/18 09:34:36;;;;;;;31.93;10.70;;;;;;;7.22;62.71;98402.09;5070188;28;20186;-74
2023/12/18 09:37:03;;;;;;;23.00;8.60;;;;;;;6.91;62.66;98373.22;5051938;28;20195;-77
2023/12/18 09:39:33;;;;;;;49.23;14.17;;;;;;;7.35;60.52;98409.69;5069671;28;20241;-76
2023/12/18 09:42:01;;;;;;;26.23;9.07;;;;;;;7.40;60.90;98401.88;5075212;28;20189;-71
2023/12/18 09:44:31;;;;;;;27.97;8.57;;;;;;;7.46;61.32;98390.66;5082763;28;20205;-77
2023/12/18 09:46:59;;;;;;;30.97;8.13;;;;;;;7.52;58.76;98395.75;5074320;28;20193;-73
2023/12/18 09:49:28;;;;;;;32.67;9.13;;;;;;;7.42;58.53;98363.22;5066042;28;20258;-74
2023/12/18 09:52:03;;;;;;;36.23;10.03;;;;;;;7.69;57.94;98384.34;5066501;28;20257;-75
2023/12/18 09:54:31;;;;;;;23.43;6.57;;;;;;;7.56;55.71;98341.56;5066240;28;20235;-75
2023/12/18 09:57:02;;;;;;;28.47;8.47;;;;;;;7.79;54.23;98362.72;5067547;28;20193;-72
2023/12/18 09:59:31;;;;;;;44.30;11.90;;;;;;;7.85;54.12;98343.75;5066009;28;20204;-79
2023/12/18 10:01:59;;;;;;;24.40;7.07;;;;;;;8.10;52.98;98376.03;5048599;28;20770;-76
2023/12/18 10:04:26;;;;;;;33.17;9.10;;;;;;;8.22;51.99;98366.38;5067161;28;20201;-74
2023/12/18 10:06:54;;;;;;;32.73;9.50;;;;;;;8.35;51.95;98366.22;5066551;28;20196;-75
2023/12/18 10:09:22;;;;;;;39.63;10.17;;;;;;;8.45;51.94;98347.97;5069009;28;20193;-76
2023/12/18 10:11:52;;;;;;;27.20;7.57;;;;;;;8.44;51.19;98341.13;5067906;28;20853;-76
2023/12/18 10:14:23;;;;;;;38.23;10.13;;;;;;;8.62;52.01;98350.28;5066516;28;20232;-76
2023/12/18 10:16:50;;;;;;;48.73;11.43;;;;;;;8.61;51.55;98351.16;5067503;28;20210;-75
2023/12/18 10:19:18;;;;;;;48.60;11.47;;;;;;;8.51;51.00;98318.66;5065778;28;20721;-73
2023/12/18 10:21:46;;;;;;;44.07;10.97;;;;;;;8.79;50.98;98343.09;5069347;28;20189;-73
2023/12/18 10:24:18;;;;;;;33.17;8.23;;;;;;;8.85;50.75;98348.16;5075347;28;20683;-75
2023/12/18 10:26:47;;;;;;;39.27;9.73;;;;;;;8.94;50.40;98348.00;5086835;28;20257;-73
2023/12/18 10:29:15;;;;;;;29.30;7.90;;;;;;;9.07;49.71;98343.44;5076607;28;20200;-77
2023/12/18 10:31:43;;;;;;;29.83;8.33;;;;;;;8.96;50.04;98315.22;5065643;28;20213;-77
2023/12/18 10:34:12;;;;;;;27.77;7.87;;;;;;;9.05;48.66;98309.03;5067586;28;20197;-77
2023/12/18 10:36:41;;;;;;;37.63;9.80;;;;;;;9.31;48.49;98337.81;5064810;28;20270;-76
2023/12/18 10:39:12;;;;;;;38.67;10.83;;;;;;;9.23;48.46;98347.44;5067252;28;20236;-75
2023/12/18 10:41:43;;;;;;;33.03;8.83;;;;;;;9.27;48.38;98321.50;5064778;28;20603;-78
2023/12/18 10:44:14;;;;;;;32.13;9.23;;;;;;;9.34;47.74;98297.22;5066667;28;20189;-76
2023/12/18 10:46:46;;;;;;;26.20;7.57;;;;;;;9.48;47.69;98328.81;5065995;28;20904;-75
2023/12/18 10:49:15;;;;;;;39.90;11.07;;;;;;;9.42;47.68;98305.66;5065314;28;20206;-75
2023/12/18 10:51:46;;;;;;;33.53;9.83;;;;;;;9.41;47.86;98298.81;5066764;28;20216;-75
2023/12/18 10:54:16;;;;;;;41.40;10.73;;;;;;;9.72;47.50;98322.28;5065233;28;20194;-75
2023/12/18 10:56:47;;;;;;;42.53;10.13;;;;;;;9.61;47.87;98290.59;5066884;28;20196;-73
2023/12/18 10:59:17;;;;;;;29.13;8.63;;;;;;;9.69;47.27;98284.38;5066101;28;20274;-75
2023/12/18 11:01:46;;;;;;;45.10;11.60;;;;;;;9.86;46.58;98276.25;5065325;28;20190;-74
2023/12/18 11:04:13;;;;;;;34.63;9.37;;;;;;;10.05;46.33;98290.47;5067437;28;20286;-73
2023/12/18 11:06:45;;;;;;;34.87;9.60;;;;;;;10.10;46.04;98277.41;5066602;28;20305;-73
2023/12/18 11:09:13;;;;;;;38.63;12.67;;;;;;;10.17;45.21;98285.03;5085674;28;20285;-72
2023/12/18 11:11:41;;;;;;;41.73;12.30;;;;;;;10.19;45.54;98290.16;5074365;28;20193;-76
2023/12/18 11:14:13;;;;;;;31.80;9.23;;;;;;;10.25;43.57;98290.00;5066785;28;20193;-75
2023/12/18 11:16:46;;;;;;;25.80;7.70;;;;;;;10.29;43.08;98287.31;5047992;28;20647;-76
2023/12/18 11:19:23;;;;;;;33.67;8.67;;;;;;;10.30;42.76;98286.44;5065234;28;20762;-72
2023/12/18 11:21:54;;;;;;;31.83;8.73;;;;;;;10.26;42.07;98256.28;5066679;28;20833;-74
2023/12/18 11:24:21;;;;;;;29.30;8.60;;;;;;;10.38;42.40;98276.72;5065483;28;20708;-76
2023/12/18 11:26:50;;;;;;;24.17;6.87;;;;;;;10.23;41.70;98240.00;5066716;28;20266;-74
2023/12/18 11:29:36;;;;;;;32.13;7.67;;;;;;;10.43;41.13;98253.28;5065364;28;20277;-75